Time;durP1;ratioP1;P1;durP2;ratioP2;P2;SDS_P1;SDS_P2;PMS_P1;PMS_P2;Temp;Humidity;BMP_temperature;BMP_pressure;BME280_temperature;BME280_humidity;BME280_pressure;Samples;Min_cycle;Max_cycle;Signal;HPM_P1;HPM_P2
2023/06/05 00:00:14;;;;;;;5.57;5.28;;;;;;;14.10;57.51;101222.41;6000653;23;20043;-75
2023/06/05 00:02:41;;;;;;;5.63;5.28;;;;;;;13.92;58.32;101205.84;5998179;23;20007;-74
2023/06/05 00:05:09;;;;;;;7.75;5.10;;;;;;;13.39;57.85;101141.22;6002219;23;20927;-74
2023/06/05 00:07:39;;;;;;;5.75;5.35;;;;;;;14.19;57.75;101230.72;6026797;23;20039;-75
2023/06/05 00:10:06;;;;;;;5.63;5.30;;;;;;;12.75;57.51;101006.88;6000110;23;20584;-74
2023/06/05 00:12:34;;;;;;;5.68;5.32;;;;;;;12.80;58.20;101048.75;6027563;23;20023;-75
2023/06/05 00:15:01;;;;;;;5.45;5.10;;;;;;;12.58;57.82;100997.28;5998985;23;20394;-74
2023/06/05 00:17:30;;;;;;;5.20;4.90;;;;;;;13.98;58.71;101278.53;6001348;23;20107;-75
2023/06/05 00:19:59;;;;;;;5.53;5.13;;;;;;;13.52;58.96;101188.81;5990445;23;20089;-75
2023/06/05 00:22:31;;;;;;;5.35;5.05;;;;;;;13.89;59.47;101263.22;6036670;23;20034;-74
2023/06/05 00:24:57;;;;;;;5.90;5.32;;;;;;;13.54;60.01;101215.94;6001984;23;20102;-75
2023/06/05 00:27:24;;;;;;;5.65;4.85;;;;;;;12.49;60.34;101054.88;5999869;23;20035;-75
2023/06/05 00:29:50;;;;;;;5.28;4.95;;;;;;;13.63;61.11;101284.03;6015949;23;20027;-74
2023/06/05 00:32:17;;;;;;;5.28;4.97;;;;;;;13.81;62.71;101329.63;6007653;23;20034;-73
2023/06/05 00:34:43;;;;;;;6.30;5.28;;;;;;;12.32;62.47;101090.81;6015925;23;20626;-74
2023/06/05 00:37:11;;;;;;;5.25;4.85;;;;;;;12.17;63.43;101086.41;6036961;23;20034;-73
2023/06/05 00:39:37;;;;;;;5.53;5.13;;;;;;;12.81;63.94;101173.38;6002362;23;20081;-73
2023/06/05 00:42:04;;;;;;;5.05;4.78;;;;;;;13.73;64.68;101331.81;6033675;23;20030;-73
2023/06/05 00:44:30;;;;;;;5.40;5.10;;;;;;;13.17;64.99;101246.97;6010709;23;20027;-73
2023/06/05 00:46:57;;;;;;;5.35;5.00;;;;;;;12.30;65.30;101116.38;6035840;23;20037;-74
2023/06/05 00:49:23;;;;;;;5.55;5.25;;;;;;;13.37;65.67;101277.53;6010358;23;20501;-73
2023/06/05 00:51:50;;;;;;;5.35;4.97;;;;;;;13.73;66.64;101337.09;6013356;23;20093;-73
2023/06/05 00:54:18;;;;;;;6.93;5.30;;;;;;;13.70;67.08;101340.75;5994650;23;20047;-73
2023/06/05 00:56:45;;;;;;;6.13;4.95;;;;;;;13.01;67.62;101232.91;5995316;23;20019;-72
2023/06/05 00:59:13;;;;;;;5.53;5.03;;;;;;;13.62;68.16;101342.97;6024689;23;20019;-75
2023/06/05 01:01:42;;;;;;;5.78;5.20;;;;;;;12.93;69.28;101228.91;5998621;23;20027;-76
2023/06/05 01:04:09;;;;;;;5.55;5.25;;;;;;;13.10;69.31;101266.66;6027276;23;20583;-77
2023/06/05 01:06:38;;;;;;;5.55;5.15;;;;;;;12.03;70.25;101102.91;5997381;23;20775;-76
2023/06/05 01:09:08;;;;;;;5.68;5.10;;;;;;;12.91;70.97;101258.88;6024632;23;20417;-77
2023/06/05 01:11:53;;;;;;;5.72;5.32;;;;;;;13.26;72.24;101345.78;5995061;23;20090;-75
2023/06/05 01:14:27;;;;;;;5.40;5.05;;;;;;;12.77;73.17;101252.56;6009657;23;20023;-75
2023/06/05 01:16:56;;;;;;;5.68;5.38;;;;;;;13.06;73.14;101299.38;6003628;23;20007;-75
2023/06/05 01:19:31;;;;;;;6.05;5.15;;;;;;;13.21;74.17;101335.47;6042264;23;20102;-75
2023/06/05 01:21:59;;;;;;;5.28;4.97;;;;;;;13.24;74.48;101352.91;6004461;23;20023;-75
2023/06/05 01:24:27;;;;;;;5.68;5.20;;;;;;;13.05;75.63;101338.06;6042294;23;20049;-75
2023/06/05 01:27:17;;;;;;;5.95;5.43;;;;;;;13.13;76.21;101359.59;6009547;23;20023;-75
2023/06/05 01:29:43;;;;;;;5.20;4.90;;;;;;;13.13;76.47;101364.88;6006547;23;20026;-76
2023/06/05 01:32:18;;;;;;;6.57;5.93;;;;;;;11.49;77.29;101088.97;6006217;23;20037;-75
2023/06/05 01:34:48;;;;;;;7.03;5.00;;;;;;;12.79;77.37;101307.81;6033418;23;20347;-75
2023/06/05 01:37:18;;;;;;;5.07;4.72;;;;;;;11.55;77.86;101122.81;6002120;23;20035;-76
2023/06/05 01:39:47;;;;;;;5.07;4.78;;;;;;;12.54;78.47;101282.72;5998956;23;20023;-75
2023/06/05 01:42:15;;;;;;;5.40;5.10;;;;;;;10.90;78.78;101012.16;6003478;23;20450;-74
2023/06/05 01:44:44;;;;;;;5.63;5.15;;;;;;;11.91;78.97;101192.94;6003304;23;20026;-75
2023/06/05 01:47:12;;;;;;;5.30;5.00;;;;;;;11.79;79.25;101183.84;6003204;23;20102;-75
2023/06/05 01:49:38;;;;;;;5.55;5.20;;;;;;;12.90;79.90;101350.22;5996799;23;20082;-75
2023/06/05 01:52:05;;;;;;;5.07;4.75;;;;;;;12.82;80.02;101348.94;5996304;23;20023;-75
2023/06/05 01:54:33;;;;;;;5.53;5.10;;;;;;;12.81;80.87;101352.47;6006730;23;20035;-74
2023/06/05 01:57:00;;;;;;;5.88;5.32;;;;;;;11.80;81.16;101174.19;6033270;23;20074;-75
2023/06/05 01:59:27;;;;;;;6.43;5.78;;;;;;;12.70;81.50;101322.28;6002316;23;20603;-75
2023/06/05 02:01:53;;;;;;;5.80;5.28;;;;;;;12.85;81.16;101364.56;6012025;23;20026;-75
2023/06/05 02:04:20;;;;;;;5.63;5.22;;;;;;;11.54;81.22;101169.25;6004272;23;20495;-75
2023/06/05 02:06:48;;;;;;;5.00;4.70;;;;;;;11.00;82.26;101086.94;6024330;23;20034;-75
2023/06/05 02:09:15;;;;;;;5.43;4.93;;;;;;;12.71;83.18;101378.47;5995097;23;20544;-75
2023/06/05 02:11:42;;;;;;;5.50;5.10;;;;;;;12.09;83.91;101286.75;5995769;23;20031;-74
2023/06/05 02:14:12;;;;;;;5.10;4.80;;;;;;;11.06;84.22;101123.41;5980646;23;20635;-75
2023/06/05 02:16:40;;;;;;;5.30;4.93;;;;;;;12.50;84.48;101375.09;6038601;23;20045;-74
2023/06/05 02:19:07;;;;;;;6.30;5.40;;;;;;;11.28;84.68;101164.41;5997759;23;20038;-74
2023/06/05 02:21:34;;;;;;;5.18;4.78;;;;;;;11.55;85.07;101199.91;6028696;23;20532;-75
2023/06/05 02:24:00;;;;;;;5.15;4.85;;;;;;;12.22;86.01;101307.19;6000398;23;20029;-75
2023/06/05 02:26:27;;;;;;;5.22;4.82;;;;;;;12.42;85.89;101335.16;5997074;23;20027;-77
2023/06/05 02:28:55;;;;;;;5.30;4.90;;;;;;;12.54;84.99;101360.84;6016396;23;20029;-74
2023/06/05 02:31:24;;;;;;;4.85;4.55;;;;;;;11.90;85.32;101252.56;5973087;23;20055;-74
2023/06/05 02:33:55;;;;;;;5.13;4.75;;;;;;;11.90;86.04;101265.72;6026709;23;20537;-77
2023/06/05 02:36:23;;;;;;;5.07;4.70;;;;;;;12.40;86.21;101350.16;5994002;23;20027;-75
2023/06/05 02:38:51;;;;;;;5.40;5.00;;;;;;;12.11;86.20;101312.97;6025488;23;20034;-74
2023/06/05 02:41:19;;;;;;;6.60;5.30;;;;;;;12.25;86.55;101354.38;5997552;23;20032;-76
2023/06/05 02:43:45;;;;;;;7.97;5.40;;;;;;;11.73;87.48;101270.94;5974929;23;20640;-74
2023/06/05 02:46:12;;;;;;;6.05;5.45;;;;;;;11.58;87.79;101259.34;5985118;23;20030;-74
2023/06/05 02:48:38;;;;;;;5.10;4.88;;;;;;;11.97;88.52;101326.81;6006127;23;20541;-76
2023/06/05 02:51:06;;;;;;;5.55;5.15;;;;;;;11.76;88.51;101297.91;6034507;23;20023;-76
2023/06/05 02:53:33;;;;;;;5.28;4.97;;;;;;;10.63;88.85;101135.91;6001854;23;20039;-73
2023/06/05 02:56:02;;;;;;;5.28;4.97;;;;;;;11.81;89.85;101331.91;6011890;23;20155;-74
2023/06/05 02:58:28;;;;;;;5.88;4.82;;;;;;;11.78;90.04;101324.13;5981919;23;20037;-74
2023/06/05 03:00:55;;;;;;;5.35;4.93;;;;;;;11.72;90.75;101330.53;6035795;23;20017;-76
2023/06/05 03:03:25;;;;;;;5.95;5.18;;;;;;;11.28;91.28;101272.16;6008604;23;20035;-77
2023/06/05 03:05:53;;;;;;;5.53;5.22;;;;;;;11.27;92.47;101283.59;6030099;23;20030;-74
2023/06/05 03:08:19;;;;;;;5.72;5.22;;;;;;;11.50;92.37;101354.34;6010802;23;20693;-75
2023/06/05 03:10:46;;;;;;;5.07;4.78;;;;;;;11.38;93.18;101318.09;6005380;23;20107;-74
2023/06/05 03:13:13;;;;;;;5.30;5.00;;;;;;;11.12;93.68;101288.59;6007334;23;20151;-73
2023/06/05 03:15:39;;;;;;;5.05;4.75;;;;;;;11.45;94.12;101345.81;6005230;23;20478;-75
2023/06/05 03:18:06;;;;;;;5.53;5.15;;;;;;;10.45;94.66;101191.84;6029438;23;20118;-76
2023/06/05 03:20:32;;;;;;;8.85;5.15;;;;;;;10.71;95.61;101244.03;6005949;23;20035;-76
2023/06/05 03:22:59;;;;;;;7.38;4.95;;;;;;;11.42;96.08;101368.75;6037594;23;20006;-76
2023/06/05 03:25:25;;;;;;;5.60;5.13;;;;;;;10.83;96.24;101271.53;6004519;23;20035;-75
2023/06/05 03:27:52;;;;;;;6.00;5.45;;;;;;;11.40;96.84;101370.59;6031144;23;20611;-76
2023/06/05 03:30:19;;;;;;;5.18;4.85;;;;;;;10.91;97.22;101300.09;6002637;23;20051;-75
2023/06/05 03:32:46;;;;;;;14.13;4.90;;;;;;;10.09;97.28;101158.38;6016400;23;20027;-73
2023/06/05 03:35:13;;;;;;;6.32;5.72;;;;;;;11.11;97.57;101339.44;6008433;23;21009;-72
2023/06/05 03:37:40;;;;;;;5.75;5.03;;;;;;;10.22;97.87;101216.41;6002086;23;20934;-74
2023/06/05 03:40:08;;;;;;;5.47;5.07;;;;;;;11.35;98.28;101384.81;6028031;23;20529;-74
2023/06/05 03:42:35;;;;;;;5.53;5.13;;;;;;;11.32;98.65;101387.56;6002658;23;20033;-74
2023/06/05 03:45:02;;;;;;;5.78;5.47;;;;;;;11.39;98.70;101403.91;6032167;23;20089;-74
2023/06/05 03:47:29;;;;;;;8.55;5.30;;;;;;;10.55;98.33;101264.00;5978252;23;20565;-74
2023/06/05 03:49:55;;;;;;;4.97;4.70;;;;;;;10.99;98.34;101332.09;6032673;23;20089;-74
2023/06/05 03:52:23;;;;;;;5.95;5.38;;;;;;;11.29;98.04;101394.75;6005519;23;20031;-73
2023/06/05 03:54:55;;;;;;;5.13;4.82;;;;;;;11.43;98.30;101413.38;6030876;23;20026;-74
2023/06/05 03:57:22;;;;;;;5.97;5.40;;;;;;;10.55;97.84;101258.75;5997578;23;20027;-74
2023/06/05 03:59:48;;;;;;;6.25;5.75;;;;;;;10.11;97.26;101172.28;6025014;23;20034;-75
2023/06/05 04:02:15;;;;;;;5.30;4.90;;;;;;;11.66;97.33;101424.63;5999093;23;20565;-74
2023/06/05 04:04:41;;;;;;;5.60;5.20;;;;;;;11.65;96.50;101418.53;6005499;23;20039;-74
2023/06/05 04:07:08;;;;;;;5.65;5.18;;;;;;;10.80;95.84;101260.31;6008061;23;20030;-74
2023/06/05 04:09:34;;;;;;;5.28;4.97;;;;;;;11.83;95.03;101385.28;6044098;23;20025;-75
2023/06/05 04:12:00;;;;;;;6.60;5.63;;;;;;;12.38;93.99;101379.19;6013267;23;20047;-74
2023/06/05 04:14:27;;;;;;;5.70;5.30;;;;;;;13.14;90.29;101421.91;6004465;23;20676;-74
2023/06/05 04:16:53;;;;;;;5.28;4.93;;;;;;;12.83;86.52;101247.91;6011637;23;20627;-74
2023/06/05 04:19:20;;;;;;;5.68;5.20;;;;;;;14.12;83.25;101375.41;6012835;23;20443;-74
2023/06/05 04:21:47;;;;;;;6.00;5.43;;;;;;;14.45;79.37;101367.38;6014360;23;20019;-74
2023/06/05 04:24:13;;;;;;;7.32;5.15;;;;;;;14.12;76.96;101259.25;6006478;23;20090;-74
2023/06/05 04:26:43;;;;;;;6.20;5.60;;;;;;;15.10;76.54;101353.84;6035435;23;20058;-76
2023/06/05 04:29:13;;;;;;;5.93;5.38;;;;;;;14.26;74.31;101164.25;6003144;23;20076;-76
2023/06/05 04:31:41;;;;;;;5.80;5.43;;;;;;;15.43;71.97;101267.22;6035760;23;20030;-76
2023/06/05 04:34:08;;;;;;;5.80;5.45;;;;;;;15.03;70.25;101119.88;5997118;23;20037;-77
2023/06/05 04:36:36;;;;;;;6.30;5.80;;;;;;;15.86;68.91;101203.63;6028054;23;20624;-76
2023/06/05 04:39:21;;;;;;;6.43;5.93;;;;;;;17.02;67.90;101316.75;5974176;23;20090;-75
2023/06/05 04:41:48;;;;;;;11.95;5.60;;;;;;;17.26;65.83;101255.84;6002166;23;20552;-75
2023/06/05 04:44:28;;;;;;;5.43;5.13;;;;;;;17.41;64.95;101242.41;6002853;23;20580;-76
2023/06/05 04:46:57;;;;;;;6.32;5.93;;;;;;;17.78;63.69;101219.34;6000662;23;20023;-76
2023/06/05 04:49:23;;;;;;;6.50;5.93;;;;;;;18.04;62.48;101217.41;5997153;23;20037;-72
2023/06/05 04:51:53;;;;;;;7.85;6.50;;;;;;;18.23;61.35;101171.69;6027858;23;20023;-75
2023/06/05 04:54:19;;;;;;;7.05;6.40;;;;;;;18.01;60.64;101147.75;6005916;23;20031;-75
2023/06/05 04:56:46;;;;;;;5.90;5.60;;;;;;;18.78;59.96;101171.84;6028052;23;20108;-74
2023/06/05 04:59:12;;;;;;;6.20;5.80;;;;;;;18.15;59.93;101136.91;6004892;23;20603;-74
2023/06/05 05:01:40;;;;;;;6.60;6.00;;;;;;;17.63;61.60;101119.59;6003093;23;20083;-74
2023/06/05 05:04:07;;;;;;;6.55;6.15;;;;;;;17.30;62.23;101161.81;6000157;23;21201;-75
2023/06/05 05:06:34;;;;;;;7.28;6.57;;;;;;;17.20;63.06;101146.66;6006307;23;20078;-74
2023/06/05 05:09:00;;;;;;;7.00;6.45;;;;;;;16.23;62.49;101008.66;6005712;23;20537;-74
2023/06/05 05:11:30;;;;;;;7.05;6.55;;;;;;;15.90;63.07;100966.91;5997904;23;20376;-73
2023/06/05 05:13:56;;;;;;;7.28;6.68;;;;;;;16.09;64.29;101052.00;6028386;23;20023;-73
2023/06/05 05:16:24;;;;;;;6.68;6.18;;;;;;;16.87;64.01;101164.88;5997182;23;20557;-73
2023/06/05 05:18:51;;;;;;;6.40;5.90;;;;;;;16.54;64.52;101112.47;6022246;23;20034;-73
2023/06/05 05:21:18;;;;;;;6.72;6.07;;;;;;;17.69;62.87;101196.13;5974872;23;20105;-74
2023/06/05 05:23:44;;;;;;;7.03;6.43;;;;;;;17.53;62.59;101172.53;6005794;23;20071;-73
2023/06/05 05:26:11;;;;;;;7.25;6.07;;;;;;;17.41;61.93;101107.09;6000062;23;20555;-74
2023/06/05 05:28:37;;;;;;;6.70;6.10;;;;;;;17.44;63.05;101175.84;5995443;23;20040;-74
2023/06/05 05:31:04;;;;;;;6.88;6.38;;;;;;;17.68;60.95;101090.88;5986641;23;20038;-74
2023/06/05 05:33:31;;;;;;;6.50;5.97;;;;;;;18.50;59.78;101150.13;5997475;23;20031;-74
2023/06/05 05:35:57;;;;;;;6.90;6.40;;;;;;;18.66;59.19;101131.16;6021520;23;20046;-74
2023/06/05 05:38:24;;;;;;;7.90;6.22;;;;;;;18.90;57.84;101071.66;6000540;23;20023;-74
2023/06/05 05:40:50;;;;;;;6.38;5.97;;;;;;;18.05;58.47;101017.25;6022068;23;20061;-74
2023/06/05 05:43:19;;;;;;;6.68;6.18;;;;;;;18.38;58.58;101086.44;5997912;23;20049;-73
2023/06/05 05:45:45;;;;;;;6.88;6.25;;;;;;;17.72;58.52;100986.16;6005203;23;20510;-74
2023/06/05 05:48:12;;;;;;;6.80;6.20;;;;;;;18.17;59.79;101139.44;6000438;23;20097;-74
2023/06/05 05:50:40;;;;;;;6.55;6.15;;;;;;;17.27;58.18;100894.09;6001701;23;20160;-74
2023/06/05 05:53:09;;;;;;;7.22;6.53;;;;;;;18.16;58.43;101060.72;5994066;23;20027;-74
2023/06/05 05:55:36;;;;;;;6.68;6.10;;;;;;;17.60;57.61;100904.84;6025289;23;20053;-74
2023/06/05 05:58:02;;;;;;;6.90;6.32;;;;;;;18.65;57.73;101097.53;5996283;23;20031;-74
2023/06/05 06:00:29;;;;;;;6.65;6.03;;;;;;;17.66;57.11;100889.31;5993182;23;20642;-74
2023/06/05 06:02:55;;;;;;;6.80;6.20;;;;;;;18.56;57.54;101047.75;5999010;23;20014;-73
2023/06/05 06:05:22;;;;;;;6.18;5.78;;;;;;;18.33;57.43;101017.72;5995422;23;20089;-73
2023/06/05 06:07:49;;;;;;;6.50;6.10;;;;;;;19.56;56.31;101134.56;6021310;23;20021;-73
2023/06/05 06:10:16;;;;;;;6.85;6.25;;;;;;;18.69;55.65;100935.97;5996140;23;20046;-73
2023/06/05 06:12:44;;;;;;;7.10;6.30;;;;;;;18.01;56.68;100911.38;6022584;23;20014;-74
2023/06/05 06:15:11;;;;;;;8.07;7.38;;;;;;;18.55;57.53;101077.97;5994973;23;20355;-74
2023/06/05 06:17:38;;;;;;;6.18;5.78;;;;;;;17.76;56.19;100865.53;5993976;23;20031;-74
2023/06/05 06:20:06;;;;;;;6.70;6.18;;;;;;;18.77;55.96;100997.31;6025002;23;20023;-73
2023/06/05 06:22:33;;;;;;;6.85;6.22;;;;;;;18.59;56.67;101012.97;5995886;23;20089;-73
2023/06/05 06:25:00;;;;;;;7.72;7.07;;;;;;;19.03;56.24;101069.69;6009321;23;20015;-73
2023/06/05 06:27:26;;;;;;;7.10;6.60;;;;;;;17.90;56.82;100968.00;5984008;23;20027;-73
2023/06/05 06:30:02;;;;;;;6.75;6.18;;;;;;;17.66;58.96;101074.22;6022357;23;20027;-73
2023/06/05 06:32:28;;;;;;;6.88;6.28;;;;;;;17.78;59.13;101101.66;5995784;23;20101;-72
2023/06/05 06:34:56;;;;;;;6.85;6.25;;;;;;;17.67;59.36;101129.88;6002699;23;20047;-77
2023/06/05 06:37:22;;;;;;;6.63;6.15;;;;;;;17.12;59.73;101057.91;5968673;23;20258;-73
2023/06/05 06:39:49;;;;;;;6.53;6.10;;;;;;;17.70;57.92;101062.41;6017992;23;20067;-73
2023/06/05 06:42:16;;;;;;;7.10;6.50;;;;;;;17.93;58.26;101103.19;5996232;23;20111;-73
2023/06/05 06:44:43;;;;;;;6.93;6.10;;;;;;;17.89;58.12;101078.66;5992140;23;20380;-72
2023/06/05 06:47:09;;;;;;;6.47;6.07;;;;;;;18.05;58.45;101122.66;6000315;23;20042;-73
2023/06/05 06:49:36;;;;;;;6.65;6.15;;;;;;;17.23;58.12;100980.19;5993102;23;20631;-72
2023/06/05 06:52:03;;;;;;;7.35;6.65;;;;;;;17.39;58.26;101024.97;5974803;23;20672;-73
2023/06/05 06:54:29;;;;;;;7.18;6.53;;;;;;;16.87;58.83;100981.13;5996747;23;20062;-73
2023/06/05 06:56:56;;;;;;;6.95;6.20;;;;;;;18.01;58.00;101124.69;6002561;23;20027;-73
2023/06/05 06:59:23;;;;;;;6.13;5.53;;;;;;;18.29;57.14;101103.94;5998594;23;20030;-72
2023/06/05 07:02:13;;;;;;;8.77;6.40;;;;;;;18.05;58.42;101143.91;6024940;23;20093;-75
2023/06/05 07:04:41;;;;;;;6.45;6.05;;;;;;;18.26;58.16;101173.25;5997560;23;20046;-74
2023/06/05 07:07:10;;;;;;;6.53;6.03;;;;;;;18.52;57.05;101118.06;6024281;23;20022;-74
2023/06/05 07:09:36;;;;;;;7.18;6.13;;;;;;;18.78;55.47;101105.34;5991564;23;20027;-74
2023/06/05 07:12:06;;;;;;;7.20;6.47;;;;;;;17.50;56.87;100931.25;6016342;23;20094;-74
2023/06/05 07:14:36;;;;;;;7.03;6.47;;;;;;;18.20;56.35;101039.13;5993726;23;20047;-74
2023/06/05 07:17:05;;;;;;;6.93;6.43;;;;;;;18.71;55.96;101123.63;5968081;23;20543;-74
2023/06/05 07:19:33;;;;;;;8.88;6.53;;;;;;;18.83;55.00;101081.13;6022870;23;20057;-74
2023/06/05 07:22:04;;;;;;;7.07;6.47;;;;;;;17.72;54.97;100896.78;5996424;23;20030;-74
2023/06/05 07:24:31;;;;;;;6.78;6.18;;;;;;;18.61;55.46;101063.34;6019858;23;20026;-74
2023/06/05 07:27:00;;;;;;;7.28;6.47;;;;;;;19.04;55.03;101137.03;5996121;23;20089;-75
2023/06/05 07:29:27;;;;;;;12.52;6.82;;;;;;;19.04;54.21;101033.28;5996638;23;20086;-74
2023/06/05 07:31:55;;;;;;;6.95;6.43;;;;;;;19.06;54.36;101048.16;6002024;23;20023;-74
2023/06/05 07:34:23;;;;;;;6.57;6.07;;;;;;;19.46;53.79;101074.09;5998274;23;20023;-75
2023/06/05 07:36:55;;;;;;;7.15;6.55;;;;;;;19.29;53.86;101075.50;6004351;23;20041;-75
2023/06/05 07:39:22;;;;;;;6.50;6.07;;;;;;;19.57;53.84;101097.16;6001421;23;20019;-75
2023/06/05 07:41:48;;;;;;;6.82;6.32;;;;;;;18.51;52.69;100855.94;6002775;23;20399;-73
2023/06/05 07:44:17;;;;;;;6.80;6.20;;;;;;;19.05;52.57;100948.03;5997567;23;20030;-74
2023/06/05 07:46:44;;;;;;;10.32;6.63;;;;;;;19.60;52.71;101066.78;6000719;23;20027;-73
2023/06/05 07:49:11;;;;;;;6.53;6.13;;;;;;;19.61;53.24;101081.78;6001375;23;20031;-75
2023/06/05 07:51:39;;;;;;;6.47;5.97;;;;;;;19.60;51.77;101002.88;6003265;23;20018;-74
2023/06/05 07:54:08;;;;;;;6.35;5.95;;;;;;;19.04;51.46;100901.16;5977442;23;20020;-77
2023/06/05 07:56:36;;;;;;;6.70;6.18;;;;;;;18.77;51.99;100888.31;6025197;23;20031;-73
2023/06/05 07:59:04;;;;;;;6.40;6.00;;;;;;;19.89;51.71;101041.19;6000404;23;20023;-73
2023/06/05 08:01:36;;;;;;;5.85;5.45;;;;;;;19.80;50.67;100958.59;6028998;23;20097;-73
2023/06/05 08:04:07;;;;;;;6.13;5.68;;;;;;;20.31;50.78;101046.44;5997960;23;20037;-73
2023/06/05 08:06:37;;;;;;;6.18;5.78;;;;;;;20.16;49.95;100969.66;6000130;23;20015;-73
2023/06/05 08:09:05;;;;;;;10.88;6.50;;;;;;;20.28;49.46;100965.91;5999296;23;20027;-75
2023/06/05 08:11:32;;;;;;;6.20;5.70;;;;;;;19.64;49.67;100865.84;6024190;23;20152;-73
2023/06/05 08:13:59;;;;;;;8.30;5.85;;;;;;;21.00;49.92;101119.50;5999197;23;20007;-73
2023/06/05 08:16:25;;;;;;;6.78;6.13;;;;;;;20.92;48.52;100980.59;6024905;23;20195;-73
2023/06/05 08:18:52;;;;;;;6.88;6.30;;;;;;;20.71;48.41;100943.41;5997311;23;20694;-75
2023/06/05 08:21:18;;;;;;;6.15;5.70;;;;;;;20.77;48.76;100964.19;6001580;23;20187;-75
2023/06/05 08:23:45;;;;;;;6.57;6.07;;;;;;;20.98;48.66;100979.19;6002797;23;20035;-74
2023/06/05 08:26:11;;;;;;;5.63;5.32;;;;;;;21.01;48.33;100995.78;6024307;23;20082;-75
2023/06/05 08:28:39;;;;;;;6.45;5.97;;;;;;;20.99;48.58;100986.22;5997305;23;20042;-75
2023/06/05 08:31:07;;;;;;;6.30;5.80;;;;;;;21.41;48.17;101018.78;6003199;23;20712;-75
2023/06/05 08:33:34;;;;;;;6.10;5.50;;;;;;;20.63;47.22;100836.59;5975755;23;20027;-77
2023/06/05 08:36:01;;;;;;;11.13;6.00;;;;;;;21.41;45.90;100903.97;6004380;23;20014;-74
2023/06/05 08:38:31;;;;;;;6.10;5.63;;;;;;;21.73;45.58;100945.50;6000046;23;20035;-75
2023/06/05 08:41:07;;;;;;;6.88;6.18;;;;;;;21.12;46.13;100874.69;6002087;23;20230;-75
2023/06/05 08:43:38;;;;;;;8.07;5.97;;;;;;;21.07;46.51;100909.81;5998939;23;20030;-75
2023/06/05 08:46:07;;;;;;;6.47;5.93;;;;;;;21.30;47.31;100992.22;6024307;23;20078;-74
2023/06/05 08:48:45;;;;;;;6.03;5.63;;;;;;;21.64;46.98;101034.50;5997342;23;20053;-75
2023/06/05 08:51:14;;;;;;;6.22;5.82;;;;;;;21.99;47.72;101113.16;6028033;23;20606;-75
2023/06/05 08:53:45;;;;;;;6.25;5.75;;;;;;;21.60;45.21;100899.56;6001676;23;20474;-75
2023/06/05 08:56:13;;;;;;;6.13;5.68;;;;;;;20.99;45.92;100858.13;5995208;23;20098;-75
2023/06/05 08:58:43;;;;;;;6.80;6.32;;;;;;;22.07;46.35;101038.44;5996376;23;20038;-75
2023/06/05 09:01:10;;;;;;;5.95;5.60;;;;;;;20.98;46.53;100861.81;5995698;23;20489;-75
2023/06/05 09:03:37;;;;;;;6.40;5.95;;;;;;;22.38;46.06;101019.50;6009295;23;20155;-75
2023/06/05 09:06:04;;;;;;;6.82;6.05;;;;;;;22.49;45.20;101017.47;6025048;23;20022;-75
2023/06/05 09:08:32;;;;;;;5.82;5.53;;;;;;;22.29;44.50;100952.56;6005507;23;20422;-76
2023/06/05 09:11:21;;;;;;;5.82;5.53;;;;;;;22.66;44.42;100982.84;6010528;23;20742;-75
2023/06/05 09:13:49;;;;;;;6.47;5.88;;;;;;;22.54;44.13;100958.16;5982264;23;20054;-74
2023/06/05 09:16:20;;;;;;;6.05;5.65;;;;;;;22.63;42.93;100873.47;6021539;23;20606;-75
2023/06/05 09:18:58;;;;;;;6.07;5.72;;;;;;;21.50;44.55;100841.69;6001387;23;20517;-75
2023/06/05 09:21:30;;;;;;;5.95;5.65;;;;;;;21.77;44.14;100845.38;6028862;23;20029;-76
2023/06/05 09:24:18;;;;;;;6.65;6.25;;;;;;;23.06;41.38;100885.22;5999265;23;20094;-76
2023/06/05 09:26:46;;;;;;;7.88;6.18;;;;;;;23.06;40.75;100829.00;6025167;23;20672;-71
2023/06/05 09:29:12;;;;;;;6.18;5.70;;;;;;;22.85;40.89;100830.19;6001396;23;20410;-70
2023/06/05 09:31:42;;;;;;;8.10;5.85;;;;;;;21.64;42.25;100703.31;5994776;23;20454;-70
2023/06/05 09:34:09;;;;;;;6.35;5.95;;;;;;;22.41;41.78;100837.34;6000017;23;20079;-70
2023/06/05 09:36:45;;;;;;;6.22;5.82;;;;;;;23.05;42.07;100953.97;5998988;23;20027;-71
2023/06/05 09:39:15;;;;;;;5.90;5.60;;;;;;;22.65;42.64;100869.66;6035768;23;20026;-71
2023/06/05 09:41:44;;;;;;;6.85;6.20;;;;;;;23.11;40.68;100885.56;5981098;23;20102;-71
2023/06/05 09:44:11;;;;;;;7.90;5.85;;;;;;;22.98;40.42;100848.47;6024886;23;20034;-70
2023/06/05 09:46:54;;;;;;;8.25;5.90;;;;;;;21.82;41.47;100687.28;6002700;23;20091;-71
2023/06/05 09:49:23;;;;;;;6.28;5.88;;;;;;;23.21;41.99;100965.78;6026408;23;20042;-70
2023/06/05 09:51:50;;;;;;;6.13;5.72;;;;;;;22.88;40.99;100826.34;5999874;23;20222;-70
2023/06/05 09:54:17;;;;;;;6.18;5.78;;;;;;;23.41;39.25;100856.63;6021689;23;20045;-70
2023/06/05 09:56:49;;;;;;;7.00;6.35;;;;;;;23.49;39.30;100843.25;5998815;23;20044;-70
2023/06/05 09:59:20;;;;;;;6.27;5.87;;;;;;;23.06;38.92;100824.47;5996038;23;20030;-71
2023/06/05 10:01:49;;;;;;;12.93;12.18;;;;;;;23.40;39.04;100887.91;5952106;23;20318;-68
2023/06/05 10:04:22;;;;;;;9.77;5.70;;;;;;;23.18;37.23;100706.41;5958994;23;20026;-71
2023/06/05 10:06:52;;;;;;;7.28;5.82;;;;;;;22.23;36.76;100596.72;5995361;23;20735;-71
2023/06/05 10:09:19;;;;;;;7.75;5.78;;;;;;;22.29;36.29;100594.28;6021448;23;20021;-71
2023/06/05 10:11:49;;;;;;;6.50;6.07;;;;;;;23.41;36.91;100821.78;6003349;23;20037;-71
2023/06/05 10:14:16;;;;;;;5.95;5.55;;;;;;;22.61;35.26;100602.59;5999381;23;20103;-71
2023/06/05 10:16:44;;;;;;;6.45;5.95;;;;;;;23.47;36.50;100803.25;6022217;23;20023;-71
2023/06/05 10:19:12;;;;;;;7.32;6.82;;;;;;;23.88;37.29;100964.22;5971669;23;20689;-70
2023/06/05 10:21:38;;;;;;;6.25;5.85;;;;;;;22.70;35.18;100605.16;6026095;23;20089;-69
2023/06/05 10:24:09;;;;;;;5.80;5.50;;;;;;;23.82;35.60;100790.66;5995364;23;20015;-71
2023/06/05 10:26:57;;;;;;;6.32;5.93;;;;;;;23.73;35.32;100814.88;6023827;23;20032;-70
2023/06/05 10:29:28;;;;;;;6.25;5.88;;;;;;;23.90;35.25;100875.59;5999619;23;20041;-70
2023/06/05 10:32:05;;;;;;;6.15;5.75;;;;;;;23.93;33.19;100741.25;6022121;23;20608;-69
2023/06/05 10:34:34;;;;;;;6.20;5.80;;;;;;;23.94;36.13;100885.00;6000309;23;20097;-69
2023/06/05 10:37:05;;;;;;;6.57;6.05;;;;;;;23.93;36.00;100855.66;6000470;23;20035;-69
2023/06/05 10:39:34;;;;;;;6.13;5.63;;;;;;;24.00;34.66;100843.31;5998380;23;20513;-69
2023/06/05 10:42:01;;;;;;;6.63;6.22;;;;;;;23.60;34.47;100773.31;5994714;23;20027;-70
2023/06/05 10:44:42;;;;;;;6.65;6.15;;;;;;;23.29;35.19;100727.50;6030931;23;20026;-72
2023/06/05 10:47:47;;;;;;;6.38;5.78;;;;;;;23.81;34.73;100822.97;5977262;23;20501;-69
2023/06/05 10:50:17;;;;;;;6.20;5.90;;;;;;;24.04;35.81;100919.72;5990105;23;20016;-70
2023/06/05 10:52:45;;;;;;;6.43;5.93;;;;;;;23.22;36.59;100829.06;6029356;23;20094;-69
2023/06/05 10:55:12;;;;;;;6.68;6.30;;;;;;;22.73;35.97;100702.16;5997934;23;20023;-72
2023/06/05 10:58:01;;;;;;;6.45;5.95;;;;;;;24.01;36.41;100920.03;5997157;23;20030;-69
2023/06/05 11:00:28;;;;;;;6.50;6.03;;;;;;;24.21;36.33;100910.69;6007449;23;20125;-71
2023/06/05 11:02:55;;;;;;;6.55;6.05;;;;;;;24.41;36.75;101004.31;5998564;23;20058;-69
2023/06/05 11:05:22;;;;;;;6.20;5.80;;;;;;;23.33;35.16;100690.53;5998803;23;20039;-71
2023/06/05 11:08:13;;;;;;;6.22;5.88;;;;;;;24.08;35.40;100870.13;6033835;23;20034;-69
2023/06/05 11:11:02;;;;;;;6.70;6.20;;;;;;;24.14;34.66;100807.78;6011899;23;20030;-69
2023/06/05 11:13:57;;;;;;;6.13;5.72;;;;;;;24.20;36.09;100916.25;6026789;23;20648;-71
2023/06/05 11:16:31;;;;;;;6.32;5.93;;;;;;;24.24;34.33;100834.47;6001588;23;20021;-69
2023/06/05 11:19:20;;;;;;;6.72;6.22;;;;;;;24.63;33.00;100794.38;6025477;23;20023;-71
2023/06/05 11:22:11;;;;;;;6.53;6.13;;;;;;;24.40;35.59;100901.53;6003493;23;20033;-69
2023/06/05 11:24:38;;;;;;;6.10;5.70;;;;;;;24.53;35.94;100924.38;6007384;23;20031;-69
2023/06/05 11:27:09;;;;;;;6.18;5.78;;;;;;;24.61;33.55;100827.78;6001266;23;20019;-69
2023/06/05 11:29:37;;;;;;;6.63;6.13;;;;;;;23.72;34.45;100736.34;6009634;23;20970;-69
2023/06/05 11:32:11;;;;;;;6.47;6.07;;;;;;;23.59;34.35;100710.00;6001442;23;20086;-70